sensor_id;sensor_type;location;lat;lon;timestamp;temperature;humidity
65582;DHT22;52231;40.090;18.348;2023-01-08T00:01:51;5.80;90.30
65582;DHT22;52231;40.090;18.348;2023-01-08T00:04:19;5.80;90.30
65582;DHT22;52231;40.090;18.348;2023-01-08T00:06:47;5.80;90.40
65582;DHT22;52231;40.090;18.348;2023-01-08T00:09:16;5.80;90.40
65582;DHT22;52231;40.090;18.348;2023-01-08T00:11:44;5.80;90.50
65582;DHT22;52231;40.090;18.348;2023-01-08T00:14:13;5.80;90.50
65582;DHT22;52231;40.090;18.348;2023-01-08T00:16:42;5.80;90.50
65582;DHT22;52231;40.090;18.348;2023-01-08T00:19:11;5.80;90.50
65582;DHT22;52231;40.090;18.348;2023-01-08T00:21:39;5.80;90.40
65582;DHT22;52231;40.090;18.348;2023-01-08T00:24:07;5.70;90.40
65582;DHT22;52231;40.090;18.348;2023-01-08T00:26:35;5.70;90.30
65582;DHT22;52231;40.090;18.348;2023-01-08T00:29:04;5.60;90.20
65582;DHT22;52231;40.090;18.348;2023-01-08T00:31:32;5.50;90.20
65582;DHT22;52231;40.090;18.348;2023-01-08T00:34:25;5.50;90.20
65582;DHT22;52231;40.090;18.348;2023-01-08T00:37:18;5.40;90.10
65582;DHT22;52231;40.090;18.348;2023-01-08T00:40:11;5.40;90.00
65582;DHT22;52231;40.090;18.348;2023-01-08T00:43:05;5.30;89.90
65582;DHT22;52231;40.090;18.348;2023-01-08T00:45:58;5.30;90.00
65582;DHT22;52231;40.090;18.348;2023-01-08T00:48:45;5.30;90.10
65582;DHT22;52231;40.090;18.348;2023-01-08T00:51:13;5.30;90.10
65582;DHT22;52231;40.090;18.348;2023-01-08T00:53:42;5.30;90.20
65582;DHT22;52231;40.090;18.348;2023-01-08T00:56:10;5.30;90.20
65582;DHT22;52231;40.090;18.348;2023-01-08T00:58:38;5.30;90.20
65582;DHT22;52231;40.090;18.348;2023-01-08T01:01:14;5.30;90.20
65582;DHT22;52231;40.090;18.348;2023-01-08T01:03:43;5.20;90.20
65582;DHT22;52231;40.090;18.348;2023-01-08T01:06:13;5.20;90.20
65582;DHT22;52231;40.090;18.348;2023-01-08T01:08:41;5.20;90.30
65582;DHT22;52231;40.090;18.348;2023-01-08T01:11:20;5.20;90.30
65582;DHT22;52231;40.090;18.348;2023-01-08T01:13:49;5.20;90.40
65582;DHT22;52231;40.090;18.348;2023-01-08T01:16:18;5.20;90.50
65582;DHT22;52231;40.090;18.348;2023-01-08T01:18:47;5.30;90.50
65582;DHT22;52231;40.090;18.348;2023-01-08T01:21:29;5.30;90.60
65582;DHT22;52231;40.090;18.348;2023-01-08T01:24:02;5.20;90.50
65582;DHT22;52231;40.090;18.348;2023-01-08T01:26:32;5.20;90.40
65582;DHT22;52231;40.090;18.348;2023-01-08T01:29:03;5.10;90.40
65582;DHT22;52231;40.090;18.348;2023-01-08T01:31:34;5.00;90.40
65582;DHT22;52231;40.090;18.348;2023-01-08T01:34:02;4.90;90.40
65582;DHT22;52231;40.090;18.348;2023-01-08T01:36:30;4.90;90.30
65582;DHT22;52231;40.090;18.348;2023-01-08T01:38:59;4.80;90.30
65582;DHT22;52231;40.090;18.348;2023-01-08T01:41:31;4.80;90.30
65582;DHT22;52231;40.090;18.348;2023-01-08T01:47:58;4.80;90.40
65582;DHT22;52231;40.090;18.348;2023-01-08T01:53:02;4.70;90.40
65582;DHT22;52231;40.090;18.348;2023-01-08T01:55:33;4.70;90.40
65582;DHT22;52231;40.090;18.348;2023-01-08T01:58:14;4.60;90.30
65582;DHT22;52231;40.090;18.348;2023-01-08T02:00:43;4.60;90.40
65582;DHT22;52231;40.090;18.348;2023-01-08T02:03:13;4.60;90.40
65582;DHT22;52231;40.090;18.348;2023-01-08T02:08:55;4.50;90.40
65582;DHT22;52231;40.090;18.348;2023-01-08T02:11:48;4.50;90.40
65582;DHT22;52231;40.090;18.348;2023-01-08T02:15:04;4.50;90.30
65582;DHT22;52231;40.090;18.348;2023-01-08T02:17:51;4.40;90.30
65582;DHT22;52231;40.090;18.348;2023-01-08T02:20:53;4.40;90.30
65582;DHT22;52231;40.090;18.348;2023-01-08T02:23:26;4.40;90.40
65582;DHT22;52231;40.090;18.348;2023-01-08T02:26:12;4.30;90.30
65582;DHT22;52231;40.090;18.348;2023-01-08T02:31:38;4.30;90.30
65582;DHT22;52231;40.090;18.348;2023-01-08T02:34:07;4.20;90.30
65582;DHT22;52231;40.090;18.348;2023-01-08T02:36:52;4.20;90.30
65582;DHT22;52231;40.090;18.348;2023-01-08T02:47:54;4.20;90.50
65582;DHT22;52231;40.090;18.348;2023-01-08T02:50:32;4.20;90.60
65582;DHT22;52231;40.090;18.348;2023-01-08T02:53:21;4.20;90.60
65582;DHT22;52231;40.090;18.348;2023-01-08T02:56:03;4.20;90.60
65582;DHT22;52231;40.090;18.348;2023-01-08T02:58:51;4.10;90.50
65582;DHT22;52231;40.090;18.348;2023-01-08T03:01:21;4.10;90.50
65582;DHT22;52231;40.090;18.348;2023-01-08T03:04:14;4.10;90.50
65582;DHT22;52231;40.090;18.348;2023-01-08T03:06:44;4.00;90.40
65582;DHT22;52231;40.090;18.348;2023-01-08T03:09:14;4.00;90.40
65582;DHT22;52231;40.090;18.348;2023-01-08T03:15:11;4.10;90.50
65582;DHT22;52231;40.090;18.348;2023-01-08T03:17:34;4.00;90.50
65582;DHT22;52231;40.090;18.348;2023-01-08T03:20:07;4.00;90.60
65582;DHT22;52231;40.090;18.348;2023-01-08T03:22:39;4.00;90.60
65582;DHT22;52231;40.090;18.348;2023-01-08T03:25:27;4.10;90.60
65582;DHT22;52231;40.090;18.348;2023-01-08T03:28:00;4.10;90.70
65582;DHT22;52231;40.090;18.348;2023-01-08T03:30:30;4.10;90.70
65582;DHT22;52231;40.090;18.348;2023-01-08T03:32:59;4.10;90.70
65582;DHT22;52231;40.090;18.348;2023-01-08T03:35:29;4.10;90.70
65582;DHT22;52231;40.090;18.348;2023-01-08T03:38:15;4.10;90.70
65582;DHT22;52231;40.090;18.348;2023-01-08T03:40:49;4.00;90.70
65582;DHT22;52231;40.090;18.348;2023-01-08T03:43:37;4.00;90.60
65582;DHT22;52231;40.090;18.348;2023-01-08T03:46:14;4.00;90.60
65582;DHT22;52231;40.090;18.348;2023-01-08T03:48:44;4.00;90.60
65582;DHT22;52231;40.090;18.348;2023-01-08T03:51:13;4.00;90.70
65582;DHT22;52231;40.090;18.348;2023-01-08T03:53:41;4.00;90.80
65582;DHT22;52231;40.090;18.348;2023-01-08T03:56:09;4.00;90.80
65582;DHT22;52231;40.090;18.348;2023-01-08T03:58:38;4.10;90.90
65582;DHT22;52231;40.090;18.348;2023-01-08T04:01:06;4.10;90.90
65582;DHT22;52231;40.090;18.348;2023-01-08T04:03:34;4.10;91.00
65582;DHT22;52231;40.090;18.348;2023-01-08T04:06:02;4.10;91.10
65582;DHT22;52231;40.090;18.348;2023-01-08T04:08:30;4.10;91.10
65582;DHT22;52231;40.090;18.348;2023-01-08T04:10:58;4.10;91.10
65582;DHT22;52231;40.090;18.348;2023-01-08T04:13:27;4.10;91.10
65582;DHT22;52231;40.090;18.348;2023-01-08T04:15:55;4.10;91.00
65582;DHT22;52231;40.090;18.348;2023-01-08T04:18:24;4.10;91.10
65582;DHT22;52231;40.090;18.348;2023-01-08T04:20:53;4.10;91.10
65582;DHT22;52231;40.090;18.348;2023-01-08T04:23:21;4.10;91.10
65582;DHT22;52231;40.090;18.348;2023-01-08T04:25:49;4.10;91.10
65582;DHT22;52231;40.090;18.348;2023-01-08T04:28:18;3.90;91.10
65582;DHT22;52231;40.090;18.348;2023-01-08T04:30:46;4.00;91.10
65582;DHT22;52231;40.090;18.348;2023-01-08T04:33:14;4.00;91.10
65582;DHT22;52231;40.090;18.348;2023-01-08T04:35:43;4.00;91.20
65582;DHT22;52231;40.090;18.348;2023-01-08T04:38:11;4.00;91.20
65582;DHT22;52231;40.090;18.348;2023-01-08T04:40:39;4.00;91.20
65582;DHT22;52231;40.090;18.348;2023-01-08T04:43:08;4.00;91.30
65582;DHT22;52231;40.090;18.348;2023-01-08T04:45:36;4.00;91.40
65582;DHT22;52231;40.090;18.348;2023-01-08T04:48:04;4.00;91.40
65582;DHT22;52231;40.090;18.348;2023-01-08T04:50:33;4.00;91.40
65582;DHT22;52231;40.090;18.348;2023-01-08T04:53:20;4.00;91.40
65582;DHT22;52231;40.090;18.348;2023-01-08T04:55:49;4.00;91.40
65582;DHT22;52231;40.090;18.348;2023-01-08T04:58:17;3.90;91.40
65582;DHT22;52231;40.090;18.348;2023-01-08T05:00:46;3.90;91.30
65582;DHT22;52231;40.090;18.348;2023-01-08T05:03:14;3.80;91.30
65582;DHT22;52231;40.090;18.348;2023-01-08T05:05:42;3.80;91.30
65582;DHT22;52231;40.090;18.348;2023-01-08T05:08:11;3.70;91.30
65582;DHT22;52231;40.090;18.348;2023-01-08T05:10:39;3.70;91.20
65582;DHT22;52231;40.090;18.348;2023-01-08T05:13:07;3.60;91.10
65582;DHT22;52231;40.090;18.348;2023-01-08T05:15:36;3.60;91.10
65582;DHT22;52231;40.090;18.348;2023-01-08T05:18:04;3.50;91.20
65582;DHT22;52231;40.090;18.348;2023-01-08T05:20:33;3.50;91.20
65582;DHT22;52231;40.090;18.348;2023-01-08T05:23:01;3.50;91.20
65582;DHT22;52231;40.090;18.348;2023-01-08T05:25:30;3.50;91.20
65582;DHT22;52231;40.090;18.348;2023-01-08T05:28:00;3.50;91.20
65582;DHT22;52231;40.090;18.348;2023-01-08T05:30:29;3.60;91.20
65582;DHT22;52231;40.090;18.348;2023-01-08T05:32:57;3.60;91.20
65582;DHT22;52231;40.090;18.348;2023-01-08T05:35:25;3.50;91.20
65582;DHT22;52231;40.090;18.348;2023-01-08T05:37:53;3.50;91.20
65582;DHT22;52231;40.090;18.348;2023-01-08T05:40:21;3.40;91.20
65582;DHT22;52231;40.090;18.348;2023-01-08T05:42:49;3.40;91.20
65582;DHT22;52231;40.090;18.348;2023-01-08T05:45:17;3.40;91.10
65582;DHT22;52231;40.090;18.348;2023-01-08T05:47:45;3.40;91.10
65582;DHT22;52231;40.090;18.348;2023-01-08T05:50:14;3.40;91.10
65582;DHT22;52231;40.090;18.348;2023-01-08T05:52:42;3.40;91.10
65582;DHT22;52231;40.090;18.348;2023-01-08T05:55:10;3.40;91.00
65582;DHT22;52231;40.090;18.348;2023-01-08T05:58:02;3.40;91.00
65582;DHT22;52231;40.090;18.348;2023-01-08T06:00:31;3.40;91.00
65582;DHT22;52231;40.090;18.348;2023-01-08T06:03:00;3.40;91.00
65582;DHT22;52231;40.090;18.348;2023-01-08T06:05:30;3.30;90.90
65582;DHT22;52231;40.090;18.348;2023-01-08T06:07:58;3.30;90.80
65582;DHT22;52231;40.090;18.348;2023-01-08T06:10:27;3.30;90.80
65582;DHT22;52231;40.090;18.348;2023-01-08T06:12:55;3.30;90.80
65582;DHT22;52231;40.090;18.348;2023-01-08T06:15:23;3.30;90.80
65582;DHT22;52231;40.090;18.348;2023-01-08T06:17:51;3.30;90.80
65582;DHT22;52231;40.090;18.348;2023-01-08T06:20:19;3.30;90.80
65582;DHT22;52231;40.090;18.348;2023-01-08T06:22:48;3.20;90.70
65582;DHT22;52231;40.090;18.348;2023-01-08T06:25:16;3.20;90.80
65582;DHT22;52231;40.090;18.348;2023-01-08T06:27:44;3.30;90.80
65582;DHT22;52231;40.090;18.348;2023-01-08T06:30:17;3.30;90.80
65582;DHT22;52231;40.090;18.348;2023-01-08T06:32:46;3.30;90.80
65582;DHT22;52231;40.090;18.348;2023-01-08T06:35:14;3.30;90.70
65582;DHT22;52231;40.090;18.348;2023-01-08T06:37:42;3.30;90.80
65582;DHT22;52231;40.090;18.348;2023-01-08T06:40:10;3.50;90.80
65582;DHT22;52231;40.090;18.348;2023-01-08T06:42:39;3.50;90.90
65582;DHT22;52231;40.090;18.348;2023-01-08T06:45:07;3.60;90.90
65582;DHT22;52231;40.090;18.348;2023-01-08T06:47:36;3.60;90.90
65582;DHT22;52231;40.090;18.348;2023-01-08T06:50:04;3.80;90.90
65582;DHT22;52231;40.090;18.348;2023-01-08T06:52:33;3.90;91.00
65582;DHT22;52231;40.090;18.348;2023-01-08T06:55:02;4.00;91.00
65582;DHT22;52231;40.090;18.348;2023-01-08T06:57:31;4.20;91.00
65582;DHT22;52231;40.090;18.348;2023-01-08T07:00:18;4.30;91.00
65582;DHT22;52231;40.090;18.348;2023-01-08T07:02:46;4.50;91.00
65582;DHT22;52231;40.090;18.348;2023-01-08T07:05:15;4.60;91.00
65582;DHT22;52231;40.090;18.348;2023-01-08T07:07:43;4.80;91.00
65582;DHT22;52231;40.090;18.348;2023-01-08T07:10:11;4.90;91.00
65582;DHT22;52231;40.090;18.348;2023-01-08T07:12:40;5.10;91.00
65582;DHT22;52231;40.090;18.348;2023-01-08T07:15:08;5.30;91.00
65582;DHT22;52231;40.090;18.348;2023-01-08T07:17:36;5.60;91.00
65582;DHT22;52231;40.090;18.348;2023-01-08T07:20:05;5.80;91.00
65582;DHT22;52231;40.090;18.348;2023-01-08T07:22:33;6.10;91.00
65582;DHT22;52231;40.090;18.348;2023-01-08T07:25:01;6.40;90.90
65582;DHT22;52231;40.090;18.348;2023-01-08T07:27:30;6.70;90.80
65582;DHT22;52231;40.090;18.348;2023-01-08T07:29:58;7.00;90.60
65582;DHT22;52231;40.090;18.348;2023-01-08T07:32:26;7.30;90.40
65582;DHT22;52231;40.090;18.348;2023-01-08T07:34:55;7.50;90.00
65582;DHT22;52231;40.090;18.348;2023-01-08T07:37:26;7.80;89.70
65582;DHT22;52231;40.090;18.348;2023-01-08T07:39:54;8.00;89.30
65582;DHT22;52231;40.090;18.348;2023-01-08T07:42:22;8.30;88.90
65582;DHT22;52231;40.090;18.348;2023-01-08T07:44:50;8.50;88.60
65582;DHT22;52231;40.090;18.348;2023-01-08T07:47:18;8.70;88.00
65582;DHT22;52231;40.090;18.348;2023-01-08T07:49:46;8.90;87.50
65582;DHT22;52231;40.090;18.348;2023-01-08T07:52:14;9.20;86.90
65582;DHT22;52231;40.090;18.348;2023-01-08T07:54:43;9.40;86.50
65582;DHT22;52231;40.090;18.348;2023-01-08T07:57:11;9.80;86.10
65582;DHT22;52231;40.090;18.348;2023-01-08T07:59:39;10.00;85.70
65582;DHT22;52231;40.090;18.348;2023-01-08T08:02:11;10.30;84.30
65582;DHT22;52231;40.090;18.348;2023-01-08T08:04:58;10.40;83.70
65582;DHT22;52231;40.090;18.348;2023-01-08T08:07:30;10.80;84.40
65582;DHT22;52231;40.090;18.348;2023-01-08T08:09:58;11.00;83.50
65582;DHT22;52231;40.090;18.348;2023-01-08T08:17:26;11.50;82.10
65582;DHT22;52231;40.090;18.348;2023-01-08T08:19:54;11.80;81.20
65582;DHT22;52231;40.090;18.348;2023-01-08T08:22:27;12.00;80.70
65582;DHT22;52231;40.090;18.348;2023-01-08T08:33:01;12.60;80.20
65582;DHT22;52231;40.090;18.348;2023-01-08T08:35:31;12.80;79.50
65582;DHT22;52231;40.090;18.348;2023-01-08T08:38:01;13.00;79.50
65582;DHT22;52231;40.090;18.348;2023-01-08T08:40:29;13.30;79.20
65582;DHT22;52231;40.090;18.348;2023-01-08T08:43:00;13.40;78.70
65582;DHT22;52231;40.090;18.348;2023-01-08T08:45:31;13.50;78.00
65582;DHT22;52231;40.090;18.348;2023-01-08T08:48:07;13.60;77.50
65582;DHT22;52231;40.090;18.348;2023-01-08T08:50:54;13.60;77.20
65582;DHT22;52231;40.090;18.348;2023-01-08T08:53:33;13.70;77.80
65582;DHT22;52231;40.090;18.348;2023-01-08T08:56:20;13.90;78.30
65582;DHT22;52231;40.090;18.348;2023-01-08T08:58:48;14.00;78.00
65582;DHT22;52231;40.090;18.348;2023-01-08T09:01:18;14.20;78.30
65582;DHT22;52231;40.090;18.348;2023-01-08T09:03:47;14.30;78.40
65582;DHT22;52231;40.090;18.348;2023-01-08T09:06:20;14.50;78.40
65582;DHT22;52231;40.090;18.348;2023-01-08T09:08:49;14.80;78.30
65582;DHT22;52231;40.090;18.348;2023-01-08T09:11:17;15.00;78.00
65582;DHT22;52231;40.090;18.348;2023-01-08T09:13:45;15.20;77.50
65582;DHT22;52231;40.090;18.348;2023-01-08T09:16:14;15.20;77.50
65582;DHT22;52231;40.090;18.348;2023-01-08T09:18:42;15.30;76.90
65582;DHT22;52231;40.090;18.348;2023-01-08T09:21:12;15.50;77.20
65582;DHT22;52231;40.090;18.348;2023-01-08T09:23:40;15.60;76.50
65582;DHT22;52231;40.090;18.348;2023-01-08T09:26:12;15.70;76.00
65582;DHT22;52231;40.090;18.348;2023-01-08T09:28:42;15.70;75.90
65582;DHT22;52231;40.090;18.348;2023-01-08T09:34:02;16.10;75.60
65582;DHT22;52231;40.090;18.348;2023-01-08T09:36:31;16.20;75.20
65582;DHT22;52231;40.090;18.348;2023-01-08T09:39:02;16.30;74.50
65582;DHT22;52231;40.090;18.348;2023-01-08T09:41:37;16.30;74.20
65582;DHT22;52231;40.090;18.348;2023-01-08T09:44:21;16.40;73.50
65582;DHT22;52231;40.090;18.348;2023-01-08T09:46:53;16.50;73.60
65582;DHT22;52231;40.090;18.348;2023-01-08T09:49:39;16.60;73.30
65582;DHT22;52231;40.090;18.348;2023-01-08T09:52:11;16.60;72.40
65582;DHT22;52231;40.090;18.348;2023-01-08T09:55:12;16.70;72.40
65582;DHT22;52231;40.090;18.348;2023-01-08T09:57:42;16.80;72.40
65582;DHT22;52231;40.090;18.348;2023-01-08T10:00:24;16.80;71.60
65582;DHT22;52231;40.090;18.348;2023-01-08T10:03:00;16.90;71.30
65582;DHT22;52231;40.090;18.348;2023-01-08T10:05:29;16.90;70.90
65582;DHT22;52231;40.090;18.348;2023-01-08T10:07:57;16.90;70.30
65582;DHT22;52231;40.090;18.348;2023-01-08T10:10:29;17.00;70.10
65582;DHT22;52231;40.090;18.348;2023-01-08T10:13:17;17.10;69.40
65582;DHT22;52231;40.090;18.348;2023-01-08T10:15:45;17.20;68.50
65582;DHT22;52231;40.090;18.348;2023-01-08T10:18:22;17.30;67.90
65582;DHT22;52231;40.090;18.348;2023-01-08T10:20:51;17.30;68.20
65582;DHT22;52231;40.090;18.348;2023-01-08T10:23:50;17.40;67.90
65582;DHT22;52231;40.090;18.348;2023-01-08T10:26:29;17.60;67.40
65582;DHT22;52231;40.090;18.348;2023-01-08T10:29:18;17.70;66.50
65582;DHT22;52231;40.090;18.348;2023-01-08T10:31:53;17.70;64.20
65582;DHT22;52231;40.090;18.348;2023-01-08T10:39:55;17.90;62.70
65582;DHT22;52231;40.090;18.348;2023-01-08T10:42:36;18.00;62.70
65582;DHT22;52231;40.090;18.348;2023-01-08T10:45:26;18.00;62.30
65582;DHT22;52231;40.090;18.348;2023-01-08T10:48:16;18.00;61.90
65582;DHT22;52231;40.090;18.348;2023-01-08T10:51:25;18.10;61.50
65582;DHT22;52231;40.090;18.348;2023-01-08T10:53:58;18.10;60.30
65582;DHT22;52231;40.090;18.348;2023-01-08T10:56:42;18.00;61.00
65582;DHT22;52231;40.090;18.348;2023-01-08T10:59:18;18.10;61.10
65582;DHT22;52231;40.090;18.348;2023-01-08T11:02:14;18.20;59.80
65582;DHT22;52231;40.090;18.348;2023-01-08T11:04:49;18.20;59.80
65582;DHT22;52231;40.090;18.348;2023-01-08T11:07:21;18.20;59.50
65582;DHT22;52231;40.090;18.348;2023-01-08T11:09:50;18.20;60.10
65582;DHT22;52231;40.090;18.348;2023-01-08T11:12:30;18.10;60.30
65582;DHT22;52231;40.090;18.348;2023-01-08T11:18:17;18.20;60.20
65582;DHT22;52231;40.090;18.348;2023-01-08T11:20:49;18.30;60.40
65582;DHT22;52231;40.090;18.348;2023-01-08T11:23:30;18.30;59.70
65582;DHT22;52231;40.090;18.348;2023-01-08T11:26:16;18.30;58.50
65582;DHT22;52231;40.090;18.348;2023-01-08T11:29:10;18.30;57.60
65582;DHT22;52231;40.090;18.348;2023-01-08T11:32:18;18.30;57.60
65582;DHT22;52231;40.090;18.348;2023-01-08T11:35:11;18.20;58.40
65582;DHT22;52231;40.090;18.348;2023-01-08T11:38:10;18.30;58.80
65582;DHT22;52231;40.090;18.348;2023-01-08T11:41:08;18.30;58.90
65582;DHT22;52231;40.090;18.348;2023-01-08T11:46:41;18.60;58.00
65582;DHT22;52231;40.090;18.348;2023-01-08T11:52:44;18.50;57.60
65582;DHT22;52231;40.090;18.348;2023-01-08T11:58:41;18.40;58.20
65582;DHT22;52231;40.090;18.348;2023-01-08T12:04:45;18.50;57.70
65582;DHT22;52231;40.090;18.348;2023-01-08T12:07:36;18.50;58.30
65582;DHT22;52231;40.090;18.348;2023-01-08T12:10:20;18.60;57.20
65582;DHT22;52231;40.090;18.348;2023-01-08T12:16:05;18.60;55.60
65582;DHT22;52231;40.090;18.348;2023-01-08T12:27:43;18.40;56.40
65582;DHT22;52231;40.090;18.348;2023-01-08T12:31:05;18.00;57.60
65582;DHT22;52231;40.090;18.348;2023-01-08T12:33:41;17.50;58.70
65582;DHT22;52231;40.090;18.348;2023-01-08T12:36:25;17.20;60.10
65582;DHT22;52231;40.090;18.348;2023-01-08T12:39:03;16.90;61.20
65582;DHT22;52231;40.090;18.348;2023-01-08T12:41:36;16.80;62.10
65582;DHT22;52231;40.090;18.348;2023-01-08T12:44:10;16.80;62.50
65582;DHT22;52231;40.090;18.348;2023-01-08T12:47:01;17.00;62.80
65582;DHT22;52231;40.090;18.348;2023-01-08T12:49:41;17.60;62.20
65582;DHT22;52231;40.090;18.348;2023-01-08T12:52:24;18.10;60.80
65582;DHT22;52231;40.090;18.348;2023-01-08T12:55:29;18.50;59.60
65582;DHT22;52231;40.090;18.348;2023-01-08T13:00:42;18.00;59.70
65582;DHT22;52231;40.090;18.348;2023-01-08T13:03:20;17.60;60.20
65582;DHT22;52231;40.090;18.348;2023-01-08T13:05:51;17.30;61.10
65582;DHT22;52231;40.090;18.348;2023-01-08T13:08:34;17.10;62.40
65582;DHT22;52231;40.090;18.348;2023-01-08T13:11:03;16.80;64.30
65582;DHT22;52231;40.090;18.348;2023-01-08T13:13:40;16.70;66.00
65582;DHT22;52231;40.090;18.348;2023-01-08T13:16:20;16.50;66.50
65582;DHT22;52231;40.090;18.348;2023-01-08T13:18:57;16.30;67.80
65582;DHT22;52231;40.090;18.348;2023-01-08T13:21:40;16.20;68.60
65582;DHT22;52231;40.090;18.348;2023-01-08T13:24:24;16.10;69.10
65582;DHT22;52231;40.090;18.348;2023-01-08T13:27:29;16.00;69.80
65582;DHT22;52231;40.090;18.348;2023-01-08T13:29:58;16.20;69.70
65582;DHT22;52231;40.090;18.348;2023-01-08T13:32:48;16.30;68.30
65582;DHT22;52231;40.090;18.348;2023-01-08T13:38:23;16.50;67.40
65582;DHT22;52231;40.090;18.348;2023-01-08T13:40:58;16.60;67.30
65582;DHT22;52231;40.090;18.348;2023-01-08T13:50:17;16.60;67.00
65582;DHT22;52231;40.090;18.348;2023-01-08T13:53:02;16.90;66.90
65582;DHT22;52231;40.090;18.348;2023-01-08T13:55:36;17.00;66.00
65582;DHT22;52231;40.090;18.348;2023-01-08T13:58:15;17.10;66.20
65582;DHT22;52231;40.090;18.348;2023-01-08T14:01:21;17.30;65.60
65582;DHT22;52231;40.090;18.348;2023-01-08T14:03:55;17.40;65.00
65582;DHT22;52231;40.090;18.348;2023-01-08T14:06:32;17.40;64.90
65582;DHT22;52231;40.090;18.348;2023-01-08T14:09:13;17.40;64.90
65582;DHT22;52231;40.090;18.348;2023-01-08T14:11:46;17.50;64.50
65582;DHT22;52231;40.090;18.348;2023-01-08T14:14:21;17.40;65.10
65582;DHT22;52231;40.090;18.348;2023-01-08T14:16:57;17.30;65.20
65582;DHT22;52231;40.090;18.348;2023-01-08T14:19:52;17.00;66.20
65582;DHT22;52231;40.090;18.348;2023-01-08T14:22:28;17.00;66.80
65582;DHT22;52231;40.090;18.348;2023-01-08T14:25:18;16.80;67.20
65582;DHT22;52231;40.090;18.348;2023-01-08T14:31:36;16.40;68.50
65582;DHT22;52231;40.090;18.348;2023-01-08T14:34:39;16.30;68.80
65582;DHT22;52231;40.090;18.348;2023-01-08T14:37:13;16.10;69.40
65582;DHT22;52231;40.090;18.348;2023-01-08T14:39:47;15.80;70.50
65582;DHT22;52231;40.090;18.348;2023-01-08T14:42:44;15.60;70.90
65582;DHT22;52231;40.090;18.348;2023-01-08T14:55:41;15.10;73.00
65582;DHT22;52231;40.090;18.348;2023-01-08T14:58:15;14.90;73.20
65582;DHT22;52231;40.090;18.348;2023-01-08T15:01:39;14.80;73.00
65582;DHT22;52231;40.090;18.348;2023-01-08T15:04:21;14.60;73.20
65582;DHT22;52231;40.090;18.348;2023-01-08T15:09:38;14.30;73.90
65582;DHT22;52231;40.090;18.348;2023-01-08T15:12:47;14.20;74.10
65582;DHT22;52231;40.090;18.348;2023-01-08T15:17:32;14.10;74.70
65582;DHT22;52231;40.090;18.348;2023-01-08T15:19:44;14.00;75.10
65582;DHT22;52231;40.090;18.348;2023-01-08T15:22:36;13.80;75.90
65582;DHT22;52231;40.090;18.348;2023-01-08T15:25:32;13.70;76.60
65582;DHT22;52231;40.090;18.348;2023-01-08T15:28:02;13.60;77.40
65582;DHT22;52231;40.090;18.348;2023-01-08T15:30:45;13.50;77.90
65582;DHT22;52231;40.090;18.348;2023-01-08T15:33:34;13.30;78.60
65582;DHT22;52231;40.090;18.348;2023-01-08T15:36:04;13.30;78.80
65582;DHT22;52231;40.090;18.348;2023-01-08T15:38:41;13.20;79.10
65582;DHT22;52231;40.090;18.348;2023-01-08T15:41:46;13.10;79.50
65582;DHT22;52231;40.090;18.348;2023-01-08T15:44:49;13.00;79.70
65582;DHT22;52231;40.090;18.348;2023-01-08T15:47:20;12.90;79.90
65582;DHT22;52231;40.090;18.348;2023-01-08T15:53:51;12.70;80.90
65582;DHT22;52231;40.090;18.348;2023-01-08T15:56:19;12.60;81.20
65582;DHT22;52231;40.090;18.348;2023-01-08T15:59:09;12.50;81.70
65582;DHT22;52231;40.090;18.348;2023-01-08T16:02:00;12.40;82.30
65582;DHT22;52231;40.090;18.348;2023-01-08T16:05:15;12.40;82.30
65582;DHT22;52231;40.090;18.348;2023-01-08T16:08:10;12.30;82.80
65582;DHT22;52231;40.090;18.348;2023-01-08T16:11:05;12.20;83.10
65582;DHT22;52231;40.090;18.348;2023-01-08T16:13:37;12.20;83.50
65582;DHT22;52231;40.090;18.348;2023-01-08T16:16:18;12.20;83.50
65582;DHT22;52231;40.090;18.348;2023-01-08T16:18:51;12.10;83.90
65582;DHT22;52231;40.090;18.348;2023-01-08T16:21:24;12.00;84.00
65582;DHT22;52231;40.090;18.348;2023-01-08T16:24:20;12.00;84.30
65582;DHT22;52231;40.090;18.348;2023-01-08T16:26:48;11.90;84.50
65582;DHT22;52231;40.090;18.348;2023-01-08T16:29:21;11.90;84.70
65582;DHT22;52231;40.090;18.348;2023-01-08T16:31:52;11.80;84.80
65582;DHT22;52231;40.090;18.348;2023-01-08T16:34:39;11.80;85.10
65582;DHT22;52231;40.090;18.348;2023-01-08T16:37:24;11.80;85.20
65582;DHT22;52231;40.090;18.348;2023-01-08T16:40:03;11.70;85.40
65582;DHT22;52231;40.090;18.348;2023-01-08T16:42:35;11.70;85.50
65582;DHT22;52231;40.090;18.348;2023-01-08T16:45:04;11.60;85.80
65582;DHT22;52231;40.090;18.348;2023-01-08T16:50:52;11.50;86.20
65582;DHT22;52231;40.090;18.348;2023-01-08T16:53:37;11.50;86.20
65582;DHT22;52231;40.090;18.348;2023-01-08T16:56:08;11.40;86.50
65582;DHT22;52231;40.090;18.348;2023-01-08T16:58:37;11.30;86.70
65582;DHT22;52231;40.090;18.348;2023-01-08T17:01:09;11.30;86.70
65582;DHT22;52231;40.090;18.348;2023-01-08T17:03:38;11.30;86.70
65582;DHT22;52231;40.090;18.348;2023-01-08T17:06:50;11.30;86.80
65582;DHT22;52231;40.090;18.348;2023-01-08T17:09:19;11.20;86.90
65582;DHT22;52231;40.090;18.348;2023-01-08T17:11:57;11.20;87.00
65582;DHT22;52231;40.090;18.348;2023-01-08T17:14:26;11.10;87.10
65582;DHT22;52231;40.090;18.348;2023-01-08T17:17:24;11.10;87.30
65582;DHT22;52231;40.090;18.348;2023-01-08T17:19:56;11.10;87.30
65582;DHT22;52231;40.090;18.348;2023-01-08T17:22:29;11.00;87.30
65582;DHT22;52231;40.090;18.348;2023-01-08T17:24:58;10.90;87.30
65582;DHT22;52231;40.090;18.348;2023-01-08T17:27:27;10.80;87.20
65582;DHT22;52231;40.090;18.348;2023-01-08T17:29:58;10.80;87.20
65582;DHT22;52231;40.090;18.348;2023-01-08T17:32:33;10.70;87.30
65582;DHT22;52231;40.090;18.348;2023-01-08T17:35:21;10.60;87.30
65582;DHT22;52231;40.090;18.348;2023-01-08T17:37:52;10.60;87.40
65582;DHT22;52231;40.090;18.348;2023-01-08T17:40:21;10.50;87.50
65582;DHT22;52231;40.090;18.348;2023-01-08T17:42:54;10.50;87.50
65582;DHT22;52231;40.090;18.348;2023-01-08T17:45:28;10.50;87.60
65582;DHT22;52231;40.090;18.348;2023-01-08T17:49:51;10.50;87.70
65582;DHT22;52231;40.090;18.348;2023-01-08T17:52:46;10.40;87.90
65582;DHT22;52231;40.090;18.348;2023-01-08T17:55:48;10.40;88.00
65582;DHT22;52231;40.090;18.348;2023-01-08T17:58:33;10.40;88.10
65582;DHT22;52231;40.090;18.348;2023-01-08T18:01:39;10.40;88.20
65582;DHT22;52231;40.090;18.348;2023-01-08T18:04:08;10.40;88.30
65582;DHT22;52231;40.090;18.348;2023-01-08T18:06:40;10.40;88.50
65582;DHT22;52231;40.090;18.348;2023-01-08T18:09:22;10.40;88.70
65582;DHT22;52231;40.090;18.348;2023-01-08T18:12:10;10.40;88.70